createdAt,value
2018-05-31T00:02:06.878Z,72.08
2018-05-31T00:04:39.405Z,72.12
2018-05-31T00:07:11.948Z,72.11
2018-05-31T00:09:44.480Z,72.11
2018-05-31T00:12:17.031Z,72.18
2018-05-31T00:14:49.568Z,72.59
2018-05-31T00:17:22.934Z,72.77
2018-05-31T00:19:55.448Z,72.84
2018-05-31T00:22:27.994Z,72.74
2018-05-31T00:25:00.527Z,72.39
2018-05-31T00:27:33.068Z,72.15
2018-05-31T00:30:05.610Z,72.11
2018-05-31T00:32:38.157Z,72.17
2018-05-31T00:35:10.721Z,72.32
2018-05-31T00:37:43.287Z,72.35
2018-05-31T00:40:15.806Z,72.40
2018-05-31T00:42:48.354Z,72.83
2018-05-31T00:45:20.885Z,73.00
2018-05-31T00:47:53.425Z,73.00
2018-05-31T00:50:25.944Z,72.83
2018-05-31T00:52:58.497Z,72.78
2018-05-31T00:55:43.018Z,72.76
2018-05-31T00:58:15.523Z,72.88
2018-05-31T01:00:48.078Z,73.09
2018-05-31T01:03:22.213Z,73.06
2018-05-31T01:05:54.761Z,73.06
2018-05-31T01:08:27.277Z,73.06
2018-05-31T01:10:59.820Z,72.87
2018-05-31T01:13:32.329Z,72.82
2018-05-31T01:16:04.876Z,72.87
2018-05-31T01:18:37.401Z,72.97
2018-05-31T01:21:09.947Z,73.20
2018-05-31T01:23:42.482Z,73.14
2018-05-31T01:26:15.039Z,73.24
2018-05-31T01:28:47.564Z,73.22
2018-05-31T01:31:20.115Z,73.12
2018-05-31T01:33:53.233Z,73.07
2018-05-31T01:36:25.785Z,72.83
2018-05-31T01:38:58.320Z,72.79
2018-05-31T01:41:30.861Z,72.51
2018-05-31T01:44:03.385Z,72.53
2018-05-31T01:46:35.926Z,72.67
2018-05-31T01:49:08.458Z,72.81
2018-05-31T01:51:41.004Z,72.96
2018-05-31T01:54:13.545Z,72.87
2018-05-31T01:56:46.099Z,72.92
2018-05-31T01:59:18.616Z,72.76
2018-05-31T02:01:51.792Z,72.77
2018-05-31T02:04:24.312Z,72.78
2018-05-31T02:06:56.840Z,72.88
2018-05-31T02:09:29.354Z,72.68
2018-05-31T02:12:01.901Z,72.79
2018-05-31T02:14:34.442Z,72.79
2018-05-31T02:17:06.992Z,72.76
2018-05-31T02:19:39.512Z,72.78
2018-05-31T02:22:12.067Z,72.53
2018-05-31T02:24:44.596Z,72.84
2018-05-31T02:27:17.179Z,72.82
2018-05-31T02:29:49.718Z,73.01
2018-05-31T02:32:22.977Z,73.22
2018-05-31T02:34:55.507Z,72.90
2018-05-31T02:37:28.069Z,72.52
2018-05-31T02:40:00.594Z,72.63
2018-05-31T02:42:33.148Z,72.72
2018-05-31T02:45:05.682Z,72.80
2018-05-31T02:47:38.215Z,72.97
2018-05-31T02:50:10.790Z,73.04
2018-05-31T02:52:43.346Z,73.26
2018-05-31T02:55:15.865Z,73.23
2018-05-31T02:57:48.408Z,73.23
2018-05-31T03:00:20.958Z,73.08
2018-05-31T03:02:53.504Z,73.12
2018-05-31T03:05:26.019Z,73.08
2018-05-31T03:07:58.560Z,72.91
2018-05-31T03:10:31.078Z,72.98
2018-05-31T03:13:04.519Z,73.01
2018-05-31T03:15:37.045Z,72.83
2018-05-31T03:18:09.593Z,72.82
2018-05-31T03:20:42.124Z,73.03
2018-05-31T03:23:14.666Z,73.20
2018-05-31T03:25:47.188Z,73.23
2018-05-31T03:28:19.739Z,73.12
2018-05-31T03:30:52.996Z,73.40
2018-05-31T03:33:25.539Z,73.28
2018-05-31T03:35:58.051Z,72.99
2018-05-31T03:38:30.595Z,72.67
2018-05-31T03:41:03.121Z,72.87
2018-05-31T03:43:35.665Z,72.94
2018-05-31T03:46:08.176Z,72.71
2018-05-31T03:48:40.720Z,73.04
2018-05-31T03:51:13.234Z,72.98
2018-05-31T03:53:45.772Z,73.26
2018-05-31T03:56:26.647Z,73.24
2018-05-31T03:58:59.196Z,73.41
2018-05-31T04:01:31.768Z,73.42
2018-05-31T04:04:04.284Z,73.49
2018-05-31T04:06:36.815Z,73.38
2018-05-31T04:09:09.349Z,73.51
2018-05-31T04:11:41.879Z,73.68
2018-05-31T04:14:14.417Z,73.71
2018-05-31T04:16:46.950Z,73.69
2018-05-31T04:19:19.489Z,73.62
2018-05-31T04:21:52.008Z,73.64
2018-05-31T04:24:24.543Z,73.78
2018-05-31T04:26:57.155Z,73.77
2018-05-31T04:29:29.700Z,73.63
2018-05-31T04:32:02.224Z,73.52
2018-05-31T04:34:34.768Z,73.45
2018-05-31T04:37:07.296Z,72.97
2018-05-31T04:39:39.824Z,72.91
2018-05-31T04:42:12.367Z,72.62
2018-05-31T04:44:44.901Z,72.55
2018-05-31T04:47:17.520Z,72.58
2018-05-31T04:49:50.040Z,72.41
2018-05-31T04:52:23.152Z,72.39
2018-05-31T04:54:55.676Z,72.25
2018-05-31T04:57:28.215Z,72.19
2018-05-31T05:00:00.748Z,72.13
2018-05-31T05:02:33.309Z,71.77
2018-05-31T05:05:05.836Z,71.78
2018-05-31T05:07:38.377Z,71.65
2018-05-31T05:10:10.920Z,71.54
2018-05-31T05:12:43.460Z,71.21
2018-05-31T05:15:15.973Z,71.35
2018-05-31T05:17:48.512Z,71.27
2018-05-31T05:20:21.282Z,71.13
2018-05-31T05:22:53.829Z,70.64
2018-05-31T05:25:26.363Z,70.56
2018-05-31T05:27:58.925Z,70.05
2018-05-31T05:30:31.437Z,70.09
2018-05-31T05:33:03.975Z,69.80
2018-05-31T05:35:36.505Z,69.42
2018-05-31T05:38:09.067Z,69.53
2018-05-31T05:40:41.593Z,69.44
2018-05-31T05:43:14.131Z,69.29
2018-05-31T05:45:46.645Z,68.98
2018-05-31T05:48:19.200Z,68.64
2018-05-31T05:50:52.188Z,68.73
2018-05-31T05:53:24.727Z,68.84
2018-05-31T05:55:57.258Z,68.43
2018-05-31T05:58:29.812Z,68.05
2018-05-31T06:01:02.381Z,68.23
2018-05-31T06:03:34.930Z,68.13
2018-05-31T06:06:07.461Z,67.82
2018-05-31T06:08:40.032Z,67.73
2018-05-31T06:11:12.580Z,67.62
2018-05-31T06:13:45.115Z,68.26
2018-05-31T06:16:17.650Z,68.47
2018-05-31T06:18:50.206Z,68.15
2018-05-31T06:21:23.572Z,67.67
2018-05-31T06:23:56.120Z,67.87
2018-05-31T06:26:28.701Z,66.63
2018-05-31T06:29:01.235Z,66.75
2018-05-31T06:31:33.790Z,66.24
2018-05-31T06:34:06.328Z,66.93
2018-05-31T06:36:38.870Z,66.38
2018-05-31T06:39:11.402Z,65.66
2018-05-31T06:41:43.919Z,65.95
2018-05-31T06:44:16.464Z,66.38
2018-05-31T06:46:48.984Z,65.83
2018-05-31T06:49:22.713Z,66.86
2018-05-31T06:51:55.224Z,67.09
2018-05-31T06:54:27.758Z,66.27
2018-05-31T06:57:00.296Z,66.10
2018-05-31T06:59:32.835Z,65.00
2018-05-31T07:02:05.340Z,63.89
2018-05-31T07:04:37.865Z,65.31
2018-05-31T07:07:10.402Z,65.03
2018-05-31T07:09:42.924Z,65.14
2018-05-31T07:12:15.429Z,63.62
2018-05-31T07:14:47.948Z,63.12
2018-05-31T07:17:21.307Z,63.04
2018-05-31T07:19:53.844Z,62.55
2018-05-31T07:22:26.349Z,57.63
2018-05-31T07:24:58.913Z,60.49
2018-05-31T07:27:31.429Z,58.00
2018-05-31T07:30:03.953Z,61.07
2018-05-31T07:32:36.465Z,60.42
2018-05-31T07:35:09.001Z,61.24
2018-05-31T07:37:41.537Z,61.82
2018-05-31T07:40:14.069Z,62.50
2018-05-31T07:42:46.576Z,57.46
2018-05-31T07:45:19.103Z,57.76
2018-05-31T07:47:51.978Z,60.39
2018-05-31T07:50:24.505Z,59.80
2018-05-31T07:52:57.013Z,59.49
2018-05-31T07:55:29.540Z,58.73
2018-05-31T07:58:02.102Z,55.82
2018-05-31T08:00:34.633Z,55.84
2018-05-31T08:03:07.148Z,55.70
2018-05-31T08:05:39.709Z,55.69
2018-05-31T08:08:13.061Z,56.37
2018-05-31T08:10:45.599Z,54.71
2018-05-31T08:13:18.144Z,55.19
2018-05-31T08:15:50.905Z,54.87
2018-05-31T08:18:23.443Z,53.80
2018-05-31T08:20:55.951Z,54.14
2018-05-31T08:23:28.484Z,53.57
2018-05-31T08:26:00.990Z,52.43
2018-05-31T08:28:33.522Z,55.13
2018-05-31T08:31:06.039Z,52.81
2018-05-31T08:33:38.584Z,52.56
2018-05-31T08:36:11.127Z,50.36
2018-05-31T08:38:43.652Z,48.34
2018-05-31T08:41:16.171Z,47.79
2018-05-31T08:43:48.711Z,49.57
2018-05-31T08:46:21.743Z,47.12
2018-05-31T08:48:54.272Z,47.48
2018-05-31T08:51:26.789Z,47.77
2018-05-31T08:53:59.325Z,49.51
2018-05-31T08:56:31.840Z,47.14
2018-05-31T08:59:04.365Z,48.75
2018-05-31T09:01:36.878Z,49.47
2018-05-31T09:04:09.424Z,49.52
2018-05-31T09:06:41.944Z,45.96
2018-05-31T09:09:14.549Z,46.68
2018-05-31T09:11:47.056Z,44.69
2018-05-31T09:14:19.575Z,47.09
2018-05-31T09:16:52.800Z,47.29
2018-05-31T09:19:25.327Z,45.82
2018-05-31T09:21:57.845Z,46.66
2018-05-31T09:24:30.376Z,46.79
2018-05-31T09:27:02.902Z,46.58
2018-05-31T09:29:35.439Z,45.30
2018-05-31T09:32:08.174Z,45.53
2018-05-31T09:34:40.699Z,45.48
2018-05-31T09:37:13.202Z,43.63
2018-05-31T09:39:45.722Z,43.95
2018-05-31T09:42:18.227Z,44.97
2018-05-31T09:44:51.381Z,47.26
2018-05-31T09:47:23.883Z,45.54
2018-05-31T09:49:56.408Z,44.11
2018-05-31T09:52:28.912Z,45.11
2018-05-31T09:55:01.432Z,44.22
2018-05-31T09:57:33.957Z,44.57
2018-05-31T10:00:06.483Z,44.29
2018-05-31T10:02:38.988Z,46.49
2018-05-31T10:05:11.569Z,44.16
2018-05-31T10:07:44.078Z,41.37
2018-05-31T10:10:16.613Z,42.84
2018-05-31T10:12:49.179Z,43.03
2018-05-31T10:15:22.024Z,41.97
2018-05-31T10:17:54.531Z,42.87
2018-05-31T10:20:27.072Z,45.36
2018-05-31T10:22:59.585Z,43.74
2018-05-31T10:25:32.115Z,41.65
2018-05-31T10:28:04.629Z,42.04
2018-05-31T10:30:37.149Z,41.51
2018-05-31T10:33:09.657Z,40.62
2018-05-31T10:35:42.196Z,42.63
2018-05-31T10:38:14.693Z,41.86
2018-05-31T10:40:47.208Z,40.60
2018-05-31T10:43:19.710Z,42.29
2018-05-31T10:45:52.941Z,42.32
2018-05-31T10:48:25.453Z,41.57
2018-05-31T10:50:57.975Z,42.79
2018-05-31T10:53:30.480Z,42.03
2018-05-31T10:56:03.004Z,41.68
2018-05-31T10:58:35.524Z,40.06
2018-05-31T11:01:08.048Z,39.57
2018-05-31T11:03:40.599Z,41.34
2018-05-31T11:06:13.136Z,39.75
2018-05-31T11:08:45.645Z,39.41
2018-05-31T11:11:18.456Z,39.15
2018-05-31T11:13:50.965Z,39.37
2018-05-31T11:16:23.507Z,37.81
2018-05-31T11:18:56.014Z,39.07
2018-05-31T11:21:28.567Z,37.87
2018-05-31T11:24:01.113Z,38.23
2018-05-31T11:26:33.648Z,38.74
2018-05-31T11:29:06.148Z,40.07
2018-05-31T11:31:38.668Z,38.64
2018-05-31T11:34:11.178Z,40.29
2018-05-31T11:36:43.713Z,38.79
2018-05-31T11:39:16.212Z,36.91
2018-05-31T11:41:48.745Z,38.63
2018-05-31T11:44:21.788Z,39.95
2018-05-31T11:46:54.309Z,38.42
2018-05-31T11:49:26.848Z,37.48
2018-05-31T11:51:59.381Z,37.93
2018-05-31T11:54:31.896Z,38.09
2018-05-31T11:57:04.405Z,36.31
2018-05-31T11:59:36.927Z,36.96
2018-05-31T12:02:09.427Z,36.56
2018-05-31T12:04:41.944Z,37.92
2018-05-31T12:07:14.445Z,38.13
2018-05-31T12:09:46.980Z,36.20
2018-05-31T12:12:19.499Z,37.60
2018-05-31T12:14:52.040Z,37.53
2018-05-31T12:17:24.630Z,36.15
2018-05-31T12:19:57.101Z,37.84
2018-05-31T12:22:29.623Z,37.72
2018-05-31T12:25:02.157Z,37.26
2018-05-31T12:27:34.663Z,36.68
2018-05-31T12:30:07.185Z,36.60
2018-05-31T12:32:39.692Z,36.06
2018-05-31T12:35:12.219Z,37.07
2018-05-31T12:37:44.731Z,35.68
2018-05-31T12:40:17.279Z,36.39
2018-05-31T12:42:49.784Z,37.01
2018-05-31T12:45:23.095Z,35.39
2018-05-31T12:47:55.628Z,36.20
2018-05-31T12:50:28.154Z,34.88
2018-05-31T12:53:00.652Z,35.01
2018-05-31T12:55:33.188Z,34.37
2018-05-31T12:58:05.686Z,35.50
2018-05-31T13:00:38.203Z,35.56
2018-05-31T13:03:10.725Z,34.13
2018-05-31T13:05:43.263Z,34.84
2018-05-31T13:08:15.764Z,34.50
2018-05-31T13:10:48.291Z,33.81
2018-05-31T13:13:22.039Z,34.28
2018-05-31T13:15:56.732Z,34.19
2018-05-31T13:18:29.300Z,35.14
2018-05-31T13:21:01.834Z,32.93
2018-05-31T13:23:34.350Z,32.83
2018-05-31T13:26:06.873Z,33.80
2018-05-31T13:28:39.384Z,33.62
2018-05-31T13:31:11.918Z,32.92
2018-05-31T13:33:44.435Z,34.03
2018-05-31T13:36:16.960Z,34.07
2018-05-31T13:38:49.466Z,33.84
2018-05-31T13:41:21.983Z,35.23
2018-05-31T13:43:54.497Z,34.81
2018-05-31T13:46:27.040Z,34.56
2018-05-31T13:48:59.722Z,33.23
2018-05-31T13:51:32.262Z,33.28
2018-05-31T13:54:04.758Z,33.32
2018-05-31T13:56:37.282Z,34.50
2018-05-31T13:59:09.787Z,32.57
2018-05-31T14:01:42.319Z,33.43
2018-05-31T14:04:14.821Z,32.29
2018-05-31T14:06:47.347Z,33.00
2018-05-31T14:09:19.952Z,32.24
2018-05-31T14:11:53.061Z,33.31
2018-05-31T14:14:25.568Z,32.50
2018-05-31T14:16:58.091Z,33.33
2018-05-31T14:19:30.605Z,33.72
2018-05-31T14:22:03.128Z,33.57
2018-05-31T14:24:35.632Z,31.95
2018-05-31T14:27:08.147Z,31.74
2018-05-31T14:29:40.636Z,31.55
2018-05-31T14:32:13.152Z,31.39
2018-05-31T14:34:45.658Z,31.95
2018-05-31T14:37:18.186Z,31.73
2018-05-31T14:39:50.974Z,31.96
2018-05-31T14:42:23.519Z,32.17
2018-05-31T14:44:56.028Z,31.97
2018-05-31T14:47:28.575Z,32.70
2018-05-31T14:50:01.081Z,32.62
2018-05-31T14:52:33.607Z,32.39
2018-05-31T14:55:06.120Z,32.51
2018-05-31T14:57:38.642Z,31.91
2018-05-31T15:00:11.179Z,31.96
2018-05-31T15:02:43.716Z,32.30
2018-05-31T15:05:16.221Z,33.69
2018-05-31T15:07:48.754Z,33.94
2018-05-31T15:10:21.923Z,32.88
2018-05-31T15:12:54.479Z,33.70
2018-05-31T15:15:27.004Z,34.45
2018-05-31T15:17:59.550Z,34.88
2018-05-31T15:20:32.071Z,35.81
2018-05-31T15:23:04.578Z,36.45
2018-05-31T15:25:37.123Z,35.68
2018-05-31T15:28:09.637Z,37.06
2018-05-31T15:30:42.167Z,37.56
2018-05-31T15:33:14.672Z,38.35
2018-05-31T15:35:47.223Z,36.53
2018-05-31T15:38:19.724Z,40.29
2018-05-31T15:40:52.877Z,39.19
2018-05-31T15:43:25.410Z,39.29
2018-05-31T15:45:57.936Z,39.27
2018-05-31T15:48:30.433Z,40.16
2018-05-31T15:51:02.956Z,39.24
2018-05-31T15:53:35.470Z,41.40
2018-05-31T15:56:08.005Z,39.87
2018-05-31T15:58:40.598Z,39.92
2018-05-31T16:01:13.153Z,40.41
2018-05-31T16:03:45.670Z,40.90
2018-05-31T16:06:18.194Z,40.18
2018-05-31T16:08:50.963Z,40.44
2018-05-31T16:11:23.502Z,41.29
2018-05-31T16:13:56.008Z,42.07
2018-05-31T16:16:28.533Z,43.01
2018-05-31T16:19:01.049Z,43.10
2018-05-31T16:21:33.580Z,42.91
2018-05-31T16:24:06.081Z,43.13
2018-05-31T16:26:38.614Z,43.64
2018-05-31T16:29:11.139Z,42.70
2018-05-31T16:31:43.660Z,42.37
2018-05-31T16:34:16.380Z,42.78
2018-05-31T16:36:48.938Z,43.13
2018-05-31T16:39:22.300Z,42.97
2018-05-31T16:41:54.824Z,43.39
2018-05-31T16:44:27.338Z,42.71
2018-05-31T16:46:59.867Z,42.94
2018-05-31T16:49:32.374Z,42.60
2018-05-31T16:52:04.904Z,42.98
2018-05-31T16:54:37.454Z,42.65
2018-05-31T16:57:09.976Z,42.57
2018-05-31T16:59:42.479Z,42.94
2018-05-31T17:02:15.011Z,43.41
2018-05-31T17:04:47.553Z,43.27
2018-05-31T17:07:20.071Z,43.88
2018-05-31T17:09:53.128Z,44.45
2018-05-31T17:12:25.660Z,45.33
2018-05-31T17:14:58.569Z,45.75
2018-05-31T17:17:31.155Z,46.15
2018-05-31T17:20:03.790Z,46.39
2018-05-31T17:22:36.563Z,45.88
2018-05-31T17:25:09.275Z,46.28
2018-05-31T17:27:41.934Z,46.57
2018-05-31T17:30:14.664Z,46.91
2018-05-31T17:32:47.325Z,46.97
2018-05-31T17:35:19.975Z,47.25
2018-05-31T17:37:53.701Z,47.60
2018-05-31T17:40:26.566Z,47.84
2018-05-31T17:42:59.399Z,48.34
2018-05-31T17:45:32.022Z,48.47
2018-05-31T17:48:04.797Z,48.11
2018-05-31T17:50:37.592Z,48.21
2018-05-31T17:53:10.284Z,49.02
2018-05-31T17:55:42.925Z,49.06
2018-05-31T17:58:15.657Z,49.37
2018-05-31T18:00:48.738Z,49.58
2018-05-31T18:03:21.784Z,49.81
2018-05-31T18:05:54.352Z,50.06
2018-05-31T18:08:27.454Z,50.07
2018-05-31T18:11:00.237Z,50.39
2018-05-31T18:13:33.011Z,50.79
2018-05-31T18:16:05.869Z,50.89
2018-05-31T18:18:38.567Z,51.40
2018-05-31T18:21:11.235Z,51.43
2018-05-31T18:23:43.891Z,51.52
2018-05-31T18:26:16.547Z,51.58
2018-05-31T18:28:49.428Z,51.84
2018-05-31T18:31:22.142Z,52.05
2018-05-31T18:33:54.922Z,52.41
2018-05-31T18:36:27.562Z,53.08
2018-05-31T18:39:01.309Z,53.99
2018-05-31T18:41:34.059Z,53.47
2018-05-31T18:44:06.625Z,53.15
2018-05-31T18:46:39.261Z,53.37
2018-05-31T18:49:11.886Z,53.03
2018-05-31T18:51:44.420Z,53.77
2018-05-31T18:54:16.926Z,54.03
2018-05-31T18:56:49.458Z,53.98
2018-05-31T18:59:21.971Z,54.44
2018-05-31T19:01:54.496Z,55.14
2018-05-31T19:04:27.004Z,54.82
2018-05-31T19:06:59.590Z,55.25
2018-05-31T19:09:36.912Z,55.13
2018-05-31T19:12:09.478Z,55.17
2018-05-31T19:14:42.025Z,55.22
2018-05-31T19:17:14.556Z,55.22
2018-05-31T19:19:52.656Z,55.43
2018-05-31T19:22:25.182Z,55.50
2018-05-31T19:25:03.236Z,55.58
2018-05-31T19:27:35.756Z,55.55
2018-05-31T19:30:13.967Z,55.60
2018-05-31T19:32:46.505Z,55.63
2018-05-31T19:35:24.503Z,55.64
2018-05-31T19:37:57.037Z,55.94
2018-05-31T19:40:29.545Z,55.89
2018-05-31T19:43:07.608Z,56.36
2018-05-31T19:45:40.173Z,56.25
2018-05-31T19:48:12.700Z,56.60
2018-05-31T19:50:45.214Z,56.91
2018-05-31T19:53:23.351Z,56.96
2018-05-31T19:55:56.069Z,57.25
2018-05-31T19:58:34.377Z,57.57
2018-05-31T20:01:12.662Z,57.66
2018-05-31T20:03:45.224Z,57.78
2018-05-31T20:06:17.776Z,57.62
2018-05-31T20:08:50.326Z,57.98
2018-05-31T20:11:23.910Z,57.82
2018-05-31T20:13:56.432Z,57.89
2018-05-31T20:16:28.938Z,57.95
2018-05-31T20:19:01.534Z,58.44
2018-05-31T20:21:34.011Z,58.56
2018-05-31T20:24:06.712Z,58.77
2018-05-31T20:26:39.229Z,58.75
2018-05-31T20:29:11.764Z,58.69
2018-05-31T20:31:44.279Z,58.68
2018-05-31T20:34:16.826Z,58.79
2018-05-31T20:36:49.343Z,58.89
2018-05-31T20:39:21.875Z,58.86
2018-05-31T20:41:54.388Z,59.09
2018-05-31T20:44:26.912Z,59.10
2018-05-31T20:46:59.421Z,59.41
2018-05-31T20:49:31.956Z,59.42
2018-05-31T20:52:04.460Z,59.47
2018-05-31T20:54:36.992Z,59.47
2018-05-31T20:57:09.504Z,59.79
2018-05-31T20:59:42.032Z,59.89
2018-05-31T21:02:14.533Z,59.71
2018-05-31T21:04:47.062Z,59.95
2018-05-31T21:07:19.571Z,60.12
2018-05-31T21:09:52.982Z,60.10
2018-05-31T21:12:25.489Z,60.07
2018-05-31T21:14:58.024Z,60.59
2018-05-31T21:17:30.538Z,60.44
2018-05-31T21:20:03.128Z,60.80
2018-05-31T21:22:35.640Z,60.90
2018-05-31T21:25:08.180Z,60.79
2018-05-31T21:27:40.711Z,61.03
2018-05-31T21:30:13.233Z,61.06
2018-05-31T21:32:45.765Z,61.04
2018-05-31T21:35:18.272Z,61.01
2018-05-31T21:37:50.928Z,61.13
2018-05-31T21:40:23.448Z,61.13
2018-05-31T21:42:55.969Z,61.03
2018-05-31T21:45:28.484Z,61.03
2018-05-31T21:48:01.017Z,60.93
2018-05-31T21:50:33.528Z,60.79
2018-05-31T21:53:06.053Z,60.91
2018-05-31T21:55:38.567Z,61.33
2018-05-31T21:58:11.100Z,61.40
2018-05-31T22:00:49.154Z,61.86
2018-05-31T22:03:21.937Z,61.74
2018-05-31T22:05:54.444Z,61.53
2018-05-31T22:08:26.985Z,61.61
2018-05-31T22:10:59.492Z,61.76
2018-05-31T22:13:32.032Z,61.82
2018-05-31T22:16:04.534Z,61.70
2018-05-31T22:18:37.062Z,61.60
2018-05-31T22:21:09.569Z,61.61
2018-05-31T22:23:42.096Z,61.91
2018-05-31T22:26:14.598Z,61.93
2018-05-31T22:28:47.124Z,61.78
2018-05-31T22:31:19.629Z,62.17
2018-05-31T22:33:52.944Z,62.18
2018-05-31T22:36:25.494Z,62.10
2018-05-31T22:38:58.071Z,62.47
2018-05-31T22:41:30.632Z,62.17
2018-05-31T22:44:03.161Z,61.93
2018-05-31T22:46:35.726Z,61.70
2018-05-31T22:49:08.336Z,61.80
2018-05-31T22:51:40.903Z,61.80
2018-05-31T22:54:13.453Z,62.11
2018-05-31T22:56:46.014Z,61.89
2018-05-31T22:59:18.547Z,62.10
2018-05-31T23:01:51.652Z,62.11
2018-05-31T23:04:24.186Z,61.95
2018-05-31T23:06:56.688Z,62.02
2018-05-31T23:09:29.215Z,62.47
2018-05-31T23:12:01.735Z,62.47
2018-05-31T23:14:34.270Z,62.56
2018-05-31T23:17:06.788Z,62.31
2018-05-31T23:19:39.322Z,62.39
2018-05-31T23:22:11.844Z,62.59
2018-05-31T23:24:44.367Z,62.90
2018-05-31T23:27:16.873Z,62.72
2018-05-31T23:29:49.409Z,62.42
2018-05-31T23:32:21.933Z,62.33
2018-05-31T23:34:54.463Z,62.34
2018-05-31T23:37:26.971Z,62.85
2018-05-31T23:39:59.496Z,62.74
2018-05-31T23:42:31.996Z,62.63
2018-05-31T23:45:04.532Z,62.77
2018-05-31T23:47:37.049Z,62.68
2018-05-31T23:50:09.579Z,62.63
2018-05-31T23:52:42.090Z,62.82
2018-05-31T23:55:14.622Z,62.76
2018-05-31T23:57:47.128Z,62.62
